Edwardsville, New York
Current Conditions -  °F | °C
As of 11:58 AM on Sunday 28 Dec 2014 (Local Time) from KGTB Reporting Station
Overcast Overcast  
Wind Chill: 27°   Ceiling: 2400
Heat Index: 35°   Visibility: 10mi
Dew Point: 22°   Wind: 9mph
Humidity: 60%   Direction: 260°W
Pressure: 29.91"   Gusts: 17mph
Location:  44.435°N, 75.6656°W
Report Text: KGTB 281658Z AUTO 26008G15KT 10SM OVC024 02/M05 A2991 RMK AO2 SLP133 T00151055
Loading
Personal Weather Stations






























Interactive Weather Map New forecast layout! Learn more

10-Day Weather Forecast

Advertisements
Track Severe Weather on mobile